Crew | Aerofun Virtual



 METAR AND TAF INFORMATION
METAR FOR LEDA
ADDS - METARS form results

(0809 UTC 22 July 2019)
Data provider http://aviationweather.gov/metar/data/
 
METAR text: LEDA 220800Z 06008KT CAVOK 29/11 Q1023
Conditions at: LEDA (LLEIDA-ALGUAIRE , ES) observed 0800 UTC 22 July 2019
Temperature: 29.0°C (84°F)
Dewpoint: 11.0°C (52°F) [RH = 33%]
Pressure (altimeter): 30.21 inches Hg (1023.0 mb)
Winds: from the ENE (60 degrees) at 9 MPH (8 knots; 4.1 m/s)
Visibility: 6 or more miles (10+ km)
Ceiling: ceiling and visibility are OK
Clouds: unknown
Weather: no significant weather observed at this time

METAR text: LEDA 220730Z 06008KT CAVOK 28/11 Q1023
Conditions at: LEDA (LLEIDA-ALGUAIRE , ES) observed 0730 UTC 22 July 2019
Temperature: 28.0°C (82°F)
Dewpoint: 11.0°C (52°F) [RH = 35%]
Pressure (altimeter): 30.21 inches Hg (1023.0 mb)
Winds: from the ENE (60 degrees) at 9 MPH (8 knots; 4.1 m/s)
Visibility: 6 or more miles (10+ km)
Ceiling: ceiling and visibility are OK
Clouds: unknown
Weather: no significant weather observed at this time

 AIRPORT MAP

 RUNWAY INFORMATION

 AIRPORT FREQUENCIES

 AIRPORT NEAR NAVIGATION AIDS